Etusivu
METAR-TAF:

METAR-TAF

Lentoasemat :

Turun lentoasema

Turku, Suomi

Leveyspiiri: 60-31N, Pituuspiiri: 022-16E, korkeus merenpinnasta: 49 m

Tämänhetkinen sää

Tämä raportti tehtiin 19 minuuttia sitten, kello 13.20 UTC
Tuuli 11 kn lounaasta
Lämpötila 19°C
Kosteus 32%
Ilmanpaine 1025 hPa
Näkyvyys 10 km tai enemmän
ei pilviä alle 1500 m:ssä eikä cumulonimbus-pilviä

METAR: EFTU 201320Z AUTO 22011KT CAVOK 19/02 Q1025

Aika: 16:39 (13:39 UTC)

Sääennuste

Tämä raportti tehtiin 2 tuntia ja 9 minuuttia sitten, kello 11.30 UTC
Ennuste voimassa 20. päivästä klo 12 UTC - 21. päivään klo 12 UTC
Tuuli 8 kn lounaasta
Näkyvyys 10 km tai enemmän
ei pilviä alle 1500 m:ssä eikä cumulonimbus-pilviä

TAF: EFTU 201130Z 2012/2112 23008KT CAVOK

Säähavainnot ja -ennusteet yli 4000 lentoasemalta (METAR- ja TAF-raportit).

Käytössä olevat sääasemat on merkitty karttaan keltaisilla ja punaisilla pisteillä.

Aseta hiiri pisteen päälle nähdäksesi sääaseman nimen.

Klikkaa sitten nähdäksesi säähavainnot ja -ennusteet.

Kartan vaihtaminen: klikkaa mustalla rastilla varustettuja vihreitä pisteitä, niin voit zoomata sisään; viivalla varustettua vihreää pistettä, niin voit zoomata ulos tai vihreitä nuolia, niin pääset viereisille kartoille.


METAR-TAF: